Time;durP1;ratioP1;P1;durP2;ratioP2;P2;SDS_P1;SDS_P2;PMS_P1;PMS_P2;Temp;Humidity;BMP_temperature;BMP_pressure;BME280_temperature;BME280_humidity;BME280_pressure;Samples;Min_cycle;Max_cycle;Signal;HPM_P1;HPM_P2
2022/05/09 00:03:05;;;;;;;8.65;4.00;;;;;;;11.35;59.63;100856.47;10266082;28;20144;-61
2022/05/09 00:08:07;;;;;;;7.80;4.40;;;;;;;11.03;59.88;100858.81;10267007;28;20047;-61
2022/05/09 00:13:09;;;;;;;10.45;4.00;;;;;;;10.97;60.42;100859.09;10266675;28;20078;-61
2022/05/09 00:18:10;;;;;;;8.57;3.58;;;;;;;11.10;60.10;100856.78;10266875;28;20054;-63
2022/05/09 00:23:13;;;;;;;6.60;3.80;;;;;;;11.12;60.48;100861.03;10265751;28;20439;-62
2022/05/09 00:28:15;;;;;;;6.25;3.90;;;;;;;11.05;59.86;100849.16;10263357;28;20452;-61
2022/05/09 00:33:16;;;;;;;8.40;3.78;;;;;;;10.83;60.97;100845.81;10288439;28;20061;-61
2022/05/09 00:38:18;;;;;;;7.47;3.63;;;;;;;10.85;60.65;100850.97;10265652;28;20078;-62
2022/05/09 00:43:36;;;;;;;7.40;4.00;;;;;;;10.65;61.45;100854.50;10264486;28;20483;-61
2022/05/09 00:48:37;;;;;;;8.55;3.53;;;;;;;10.81;61.03;100850.25;10265239;28;20512;-63
2022/05/09 00:53:39;;;;;;;8.93;3.65;;;;;;;10.83;60.61;100848.44;10271315;28;20097;-63
2022/05/09 00:58:50;;;;;;;6.60;4.35;;;;;;;10.56;61.10;100847.09;10264621;28;20145;-61
2022/05/09 01:04:08;;;;;;;8.43;3.80;;;;;;;10.42;61.68;100854.66;10252994;28;20065;-62
2022/05/09 01:09:13;;;;;;;5.38;3.40;;;;;;;10.37;61.64;100847.06;10267894;28;20082;-63
2022/05/09 01:14:30;;;;;;;7.95;3.83;;;;;;;10.45;61.43;100850.19;10264575;28;20047;-61
2022/05/09 01:19:42;;;;;;;6.95;4.20;;;;;;;10.16;61.67;100857.59;10263831;28;20194;-61
2022/05/09 01:24:44;;;;;;;6.97;3.55;;;;;;;10.18;61.89;100853.13;10263940;28;20101;-61
2022/05/09 01:29:54;;;;;;;7.18;3.40;;;;;;;10.31;61.92;100849.94;10263121;28;20201;-61
2022/05/09 01:35:02;;;;;;;10.30;3.70;;;;;;;10.37;61.50;100843.59;10298674;28;20129;-61
2022/05/09 01:40:05;;;;;;;6.07;3.95;;;;;;;10.04;61.37;100834.59;10265363;28;20054;-61
2022/05/09 01:45:09;;;;;;;6.68;3.53;;;;;;;9.91;61.86;100838.66;10261601;28;20055;-61
2022/05/09 01:50:11;;;;;;;8.23;4.25;;;;;;;9.71;62.55;100838.66;10276820;28;20145;-61
2022/05/09 01:55:13;;;;;;;7.00;3.75;;;;;;;9.81;62.54;100832.97;10262856;28;20114;-61
2022/05/09 02:00:16;;;;;;;5.47;3.33;;;;;;;9.96;62.07;100832.31;10261931;28;20057;-62
2022/05/09 02:05:18;;;;;;;5.28;3.45;;;;;;;10.06;62.03;100833.63;10270433;28;20128;-61
2022/05/09 02:10:20;;;;;;;5.15;3.35;;;;;;;10.03;61.85;100838.16;10269936;28;20905;-61
2022/05/09 02:15:22;;;;;;;5.40;3.40;;;;;;;10.04;61.75;100838.06;10268632;28;20082;-62
2022/05/09 02:20:24;;;;;;;5.90;3.47;;;;;;;10.02;61.63;100836.44;10267842;28;20130;-62
2022/05/09 02:25:29;;;;;;;5.35;3.15;;;;;;;10.00;61.64;100833.03;10270687;28;20153;-61
2022/05/09 02:30:30;;;;;;;7.38;3.38;;;;;;;9.91;61.66;100834.28;10268694;28;20086;-62
2022/05/09 02:35:33;;;;;;;5.30;3.40;;;;;;;9.97;61.60;100841.03;10268962;28;20113;-61
2022/05/09 02:40:36;;;;;;;5.95;3.40;;;;;;;9.93;61.58;100837.66;10269600;28;20460;-61
2022/05/09 02:45:38;;;;;;;4.97;3.40;;;;;;;9.88;61.62;100844.88;10268277;28;20070;-61
2022/05/09 02:50:40;;;;;;;5.40;2.90;;;;;;;9.78;61.52;100845.31;10294703;28;20054;-61
2022/05/09 02:55:42;;;;;;;8.73;3.42;;;;;;;9.72;61.71;100842.97;10276236;28;20051;-61
2022/05/09 03:00:44;;;;;;;7.05;3.38;;;;;;;9.69;61.59;100836.09;10297374;28;20085;-61
2022/05/09 03:05:47;;;;;;;7.10;3.30;;;;;;;9.61;61.62;100836.38;10273236;28;20162;-63
2022/05/09 03:10:48;;;;;;;8.88;3.45;;;;;;;9.42;61.64;100847.66;10269578;28;20154;-61
2022/05/09 03:15:51;;;;;;;7.95;3.80;;;;;;;9.17;61.94;100846.94;10269284;28;20491;-61
2022/05/09 03:20:53;;;;;;;5.32;3.20;;;;;;;9.01;62.55;100846.69;10269463;28;20089;-62
2022/05/09 03:25:55;;;;;;;8.68;3.78;;;;;;;9.16;62.49;100843.47;10268354;28;20160;-62
2022/05/09 03:30:57;;;;;;;6.13;3.90;;;;;;;8.98;62.22;100836.34;10267975;28;20468;-61
2022/05/09 03:36:01;;;;;;;5.60;3.33;;;;;;;8.87;62.73;100840.28;10268601;28;20055;-61
2022/05/09 03:41:03;;;;;;;7.05;3.05;;;;;;;8.98;62.41;100838.09;10288447;28;20418;-61
2022/05/09 03:46:05;;;;;;;5.10;3.45;;;;;;;9.10;62.19;100851.53;10297742;28;20081;-62
2022/05/09 03:51:07;;;;;;;9.82;3.58;;;;;;;9.11;62.03;100845.41;10286420;28;20692;-61
2022/05/09 03:56:10;;;;;;;5.72;3.30;;;;;;;8.93;62.07;100846.13;10265893;28;20133;-62
2022/05/09 04:01:12;;;;;;;5.72;3.28;;;;;;;8.76;62.40;100853.75;10267402;28;20058;-62
2022/05/09 04:06:14;;;;;;;6.65;3.60;;;;;;;8.75;62.43;100852.06;10278568;28;20197;-61
2022/05/09 04:11:15;;;;;;;6.70;3.83;;;;;;;8.60;62.40;100852.63;10286212;28;20053;-62
2022/05/09 04:21:38;;;;;;;7.25;3.63;;;;;;;8.82;62.10;100851.75;10267018;28;20070;-62
2022/05/09 04:26:40;;;;;;;7.90;4.25;;;;;;;8.83;62.16;100860.44;10267109;28;20250;-62
2022/05/09 04:31:42;;;;;;;9.18;4.22;;;;;;;9.20;62.17;100865.09;10266951;28;20547;-62
2022/05/09 04:36:44;;;;;;;4.65;3.15;;;;;;;10.98;59.07;100863.44;10276477;28;20051;-62
2022/05/09 04:41:46;;;;;;;6.30;2.90;;;;;;;12.90;54.57;100854.47;10265713;28;20072;-62
2022/05/09 04:46:48;;;;;;;5.95;2.80;;;;;;;14.20;51.37;100857.47;10263715;28;20153;-62
2022/05/09 04:51:49;;;;;;;9.35;3.15;;;;;;;15.57;48.10;100845.25;10264177;28;20061;-62
2022/05/09 04:56:51;;;;;;;5.57;2.53;;;;;;;16.74;45.36;100846.84;10267703;28;20080;-63
2022/05/09 05:01:53;;;;;;;4.88;2.70;;;;;;;17.20;43.87;100841.75;10263631;28;20047;-63
2022/05/09 05:06:57;;;;;;;5.63;2.50;;;;;;;17.97;42.80;100841.28;10262437;28;20057;-63
2022/05/09 05:11:58;;;;;;;4.35;2.53;;;;;;;18.04;41.29;100845.13;10262471;28;20074;-64
2022/05/09 05:17:00;;;;;;;4.57;2.30;;;;;;;16.26;43.94;100847.59;10269471;28;20597;-63
2022/05/09 05:22:04;;;;;;;6.35;2.55;;;;;;;14.98;46.53;100850.91;10263907;28;20062;-64
2022/05/09 05:27:06;;;;;;;5.03;2.60;;;;;;;14.08;48.34;100860.84;10262434;28;20074;-62
2022/05/09 05:32:22;;;;;;;5.13;2.47;;;;;;;13.38;50.38;100866.66;10263496;28;20097;-62
2022/05/09 05:37:24;;;;;;;9.38;3.13;;;;;;;12.91;51.47;100864.06;10224939;28;1176854;-63
2022/05/09 05:42:27;;;;;;;5.95;2.88;;;;;;;12.94;51.98;100866.50;10258620;28;20480;-63
2022/05/09 05:47:28;;;;;;;8.35;3.00;;;;;;;12.94;52.17;100866.50;10265058;28;20101;-63
2022/05/09 05:52:31;;;;;;;5.35;2.92;;;;;;;13.08;52.19;100870.16;10265957;28;20558;-63
2022/05/09 05:57:38;;;;;;;5.43;2.95;;;;;;;13.16;52.13;100873.22;10261043;28;20413;-62
2022/05/09 06:02:41;;;;;;;5.95;2.75;;;;;;;13.20;52.07;100870.34;10264829;28;20069;-64
2022/05/09 06:07:43;;;;;;;8.63;3.33;;;;;;;13.31;52.60;100867.09;10255034;28;20047;-63
2022/05/09 06:12:45;;;;;;;6.57;2.83;;;;;;;13.50;52.22;100867.78;10260698;28;20085;-63
2022/05/09 06:17:47;;;;;;;7.15;3.03;;;;;;;13.64;52.17;100867.84;10258299;28;20053;-63
2022/05/09 06:22:49;;;;;;;5.60;3.00;;;;;;;13.86;51.64;100870.09;10258453;28;20054;-63
2022/05/09 06:27:52;;;;;;;7.47;2.95;;;;;;;13.71;50.29;100874.44;10273977;28;20137;-63
2022/05/09 06:32:55;;;;;;;7.32;3.40;;;;;;;13.85;50.22;100879.75;10261795;28;20496;-63
2022/05/09 06:38:03;;;;;;;8.60;3.10;;;;;;;14.27;48.45;100871.94;10261417;28;20118;-63
2022/05/09 06:43:06;;;;;;;9.88;3.05;;;;;;;14.34;47.99;100877.69;10291690;28;20467;-63
2022/05/09 06:48:09;;;;;;;8.82;3.17;;;;;;;14.25;47.40;100876.44;10262124;28;20047;-63
2022/05/09 06:53:12;;;;;;;7.22;2.95;;;;;;;14.41;47.63;100879.03;10263022;28;20153;-63
2022/05/09 06:58:23;;;;;;;12.63;3.20;;;;;;;14.79;47.61;100879.31;10262029;28;20137;-63
2022/05/09 07:03:27;;;;;;;9.15;3.17;;;;;;;14.81;47.29;100882.72;10263160;28;20542;-63
2022/05/09 07:08:32;;;;;;;8.27;3.00;;;;;;;14.80;46.75;100878.41;10260963;28;20059;-63
2022/05/09 07:13:34;;;;;;;8.98;3.25;;;;;;;14.85;46.84;100878.94;10262980;28;20218;-63
2022/05/09 07:18:38;;;;;;;10.35;3.22;;;;;;;14.96;46.65;100871.22;10269588;28;20050;-63
2022/05/09 07:23:40;;;;;;;8.32;2.80;;;;;;;14.97;46.09;100871.13;10289176;28;20392;-63
2022/05/09 07:28:42;;;;;;;7.55;3.20;;;;;;;15.44;46.08;100881.25;10261157;28;20057;-64
2022/05/09 07:33:44;;;;;;;9.85;2.90;;;;;;;16.95;44.36;100861.19;10261977;28;20153;-62
2022/05/09 07:38:46;;;;;;;10.35;3.25;;;;;;;18.61;40.30;100859.19;10273921;28;20131;-62
2022/05/09 07:43:49;;;;;;;10.82;2.95;;;;;;;19.70;38.69;100852.13;10268432;28;20558;-62
2022/05/09 07:48:52;;;;;;;9.07;2.83;;;;;;;19.98;37.01;100860.34;10271258;28;20050;-62
2022/05/09 07:53:54;;;;;;;9.30;2.92;;;;;;;20.45;36.67;100850.97;10272129;28;20633;-63
2022/05/09 07:58:56;;;;;;;8.32;2.80;;;;;;;20.98;35.95;100847.16;10303119;28;20189;-63
2022/05/09 08:03:58;;;;;;;9.73;2.63;;;;;;;21.53;35.13;100850.22;10268061;28;20130;-64
2022/05/09 08:09:02;;;;;;;6.75;2.95;;;;;;;22.05;34.24;100846.31;10267072;28;20333;-63
2022/05/09 08:14:06;;;;;;;9.98;2.85;;;;;;;22.16;34.91;100841.66;10267895;28;20058;-62
2022/05/09 08:19:12;;;;;;;8.98;2.83;;;;;;;22.23;34.06;100844.56;10267504;28;20310;-63
2022/05/09 08:24:14;;;;;;;7.00;2.70;;;;;;;22.40;33.71;100836.66;10276481;28;20142;-63
2022/05/09 08:29:15;;;;;;;8.68;2.85;;;;;;;22.86;33.23;100834.97;10268266;28;20404;-63
2022/05/09 08:34:17;;;;;;;9.55;3.05;;;;;;;22.73;32.70;100842.41;10266187;28;20094;-63
2022/05/09 08:39:19;;;;;;;10.23;3.00;;;;;;;22.56;33.19;100836.88;10276022;28;20109;-63
2022/05/09 08:44:47;;;;;;;8.10;2.80;;;;;;;23.23;31.96;100831.19;10265233;28;20559;-63
2022/05/09 08:50:10;;;;;;;8.45;2.90;;;;;;;23.18;32.15;100830.00;10256612;28;20541;-63
2022/05/09 08:55:14;;;;;;;7.28;2.92;;;;;;;23.19;32.64;100832.50;10254025;28;20057;-67
2022/05/09 09:00:18;;;;;;;6.65;2.90;;;;;;;23.24;32.21;100832.06;10264569;28;20120;-68
2022/05/09 09:05:23;;;;;;;6.35;2.67;;;;;;;23.54;32.35;100821.03;10259841;28;20133;-68
2022/05/09 09:10:43;;;;;;;9.00;3.03;;;;;;;23.49;32.26;100823.34;10259091;28;21759;-67
2022/05/09 09:16:20;;;;;;;8.90;2.70;;;;;;;24.05;32.14;100823.78;10268913;28;20051;-67
2022/05/09 09:21:22;;;;;;;7.50;3.10;;;;;;;23.83;33.11;100813.59;10248497;28;20277;-67
2022/05/09 09:26:40;;;;;;;10.65;3.40;;;;;;;23.80;32.45;100813.91;10261702;28;20050;-68
2022/05/09 09:31:49;;;;;;;7.57;3.30;;;;;;;24.19;32.18;100795.66;10260735;28;20060;-68
2022/05/09 09:37:00;;;;;;;9.05;3.50;;;;;;;24.26;31.94;100794.91;10260875;28;20133;-68
2022/05/09 09:42:02;;;;;;;8.50;3.17;;;;;;;24.02;32.69;100785.84;10281540;28;20141;-68
2022/05/09 09:47:07;;;;;;;8.60;3.60;;;;;;;24.23;34.51;100789.84;10261361;28;20062;-68
2022/05/09 09:52:23;;;;;;;7.90;3.28;;;;;;;23.61;34.03;100786.53;10258403;28;20105;-68
2022/05/09 09:57:35;;;;;;;7.72;3.08;;;;;;;24.35;33.94;100786.91;10257551;28;20046;-68
2022/05/09 10:02:37;;;;;;;7.65;3.58;;;;;;;23.69;33.38;100778.59;10261486;28;20090;-68
2022/05/09 10:07:43;;;;;;;6.32;3.10;;;;;;;24.05;34.47;100772.16;10258857;28;20058;-68
2022/05/09 10:12:57;;;;;;;6.32;3.10;;;;;;;24.29;33.43;100773.16;10272239;28;20078;-68
2022/05/09 10:17:59;;;;;;;8.60;3.08;;;;;;;23.85;34.19;100774.22;10261960;28;20483;-67
2022/05/09 10:28:45;;;;;;;11.73;3.65;;;;;;;23.54;33.48;100764.94;10256736;28;20373;-67
2022/05/09 10:33:55;;;;;;;9.07;3.42;;;;;;;23.56;34.39;100756.78;10269941;28;20077;-68
2022/05/09 10:39:05;;;;;;;7.85;3.40;;;;;;;23.61;34.41;100744.66;10261735;28;20061;-68
2022/05/09 10:44:28;;;;;;;9.98;3.80;;;;;;;22.95;35.70;100740.69;10291221;28;20073;-68
2022/05/09 10:49:52;;;;;;;5.95;3.28;;;;;;;22.62;35.08;100734.97;10257306;28;20051;-67
2022/05/09 10:55:03;;;;;;;8.95;3.22;;;;;;;22.47;37.40;100731.16;10257421;28;20185;-67
2022/05/09 11:00:12;;;;;;;8.30;3.17;;;;;;;22.80;37.25;100732.34;10254349;28;20086;-68
2022/05/09 11:05:14;;;;;;;8.05;3.40;;;;;;;22.78;36.89;100717.50;10260254;28;20065;-67
2022/05/09 11:10:41;;;;;;;7.03;3.70;;;;;;;22.73;36.21;100714.41;10261506;28;20039;-67
2022/05/09 11:15:58;;;;;;;6.20;3.50;;;;;;;22.69;35.81;100705.88;10281613;28;20554;-67
2022/05/09 11:21:29;;;;;;;6.93;3.15;;;;;;;22.91;36.50;100702.81;10266385;28;20519;-67
2022/05/09 11:26:52;;;;;;;6.05;3.10;;;;;;;22.99;36.80;100689.53;10268927;28;20106;-67
2022/05/09 11:31:57;;;;;;;7.57;3.17;;;;;;;23.25;36.52;100689.59;10264837;28;20137;-67
2022/05/09 11:37:23;;;;;;;7.13;3.13;;;;;;;23.24;36.79;100683.44;10293555;28;20062;-67
2022/05/09 11:48:19;;;;;;;9.38;3.50;;;;;;;23.19;36.41;100671.53;10270896;28;20051;-68
2022/05/09 11:53:26;;;;;;;6.30;3.25;;;;;;;23.31;34.92;100662.28;10266140;28;20480;-67
2022/05/09 11:58:29;;;;;;;6.90;3.03;;;;;;;23.41;36.12;100655.06;10265993;28;20514;-67
2022/05/09 12:03:39;;;;;;;6.97;3.03;;;;;;;23.66;35.03;100653.38;10264125;28;20134;-68
2022/05/09 12:08:46;;;;;;;5.55;2.83;;;;;;;23.92;34.84;100647.00;10263378;28;20046;-67
2022/05/09 12:13:51;;;;;;;8.23;3.40;;;;;;;23.86;34.31;100638.81;10265681;28;20446;-68
2022/05/09 12:19:03;;;;;;;6.25;2.92;;;;;;;23.93;35.32;100635.34;10265774;28;20227;-67
2022/05/09 12:24:17;;;;;;;7.20;2.70;;;;;;;23.66;35.42;100634.66;10274326;28;20049;-67
2022/05/09 12:29:18;;;;;;;7.65;2.88;;;;;;;23.68;35.53;100628.19;10261109;28;20173;-67
2022/05/09 12:34:41;;;;;;;5.68;3.30;;;;;;;23.88;34.28;100629.63;10259471;28;20076;-66
2022/05/09 12:39:47;;;;;;;5.53;2.90;;;;;;;24.13;33.67;100623.41;10259712;28;20051;-66
2022/05/09 12:44:51;;;;;;;7.78;2.88;;;;;;;24.10;34.29;100607.69;10258470;28;20145;-68
2022/05/09 12:50:04;;;;;;;6.28;2.90;;;;;;;24.00;31.87;100611.47;10261023;28;20049;-68
2022/05/09 13:00:31;;;;;;;6.38;2.85;;;;;;;23.90;33.75;100600.91;10273973;28;20092;-67
2022/05/09 13:05:53;;;;;;;6.20;2.75;;;;;;;24.47;32.84;100582.41;10274974;28;20215;-67
2022/05/09 13:10:57;;;;;;;5.50;2.70;;;;;;;24.59;32.66;100587.25;10269206;28;20051;-68
2022/05/09 13:16:00;;;;;;;11.75;2.80;;;;;;;24.87;32.39;100590.47;10285465;28;20082;-68
2022/05/09 13:21:08;;;;;;;5.60;2.80;;;;;;;24.48;32.24;100589.41;10260076;28;20158;-67
2022/05/09 13:26:24;;;;;;;8.50;2.85;;;;;;;24.14;32.59;100579.63;10260538;28;20169;-67
2022/05/09 13:31:29;;;;;;;4.72;2.75;;;;;;;24.43;31.66;100570.38;10264106;28;20385;-68
2022/05/09 13:36:36;;;;;;;5.50;2.70;;;;;;;24.92;30.06;100559.53;10259999;28;20046;-68
2022/05/09 13:41:38;;;;;;;5.97;2.70;;;;;;;24.84;32.17;100559.53;10276336;28;20234;-68
2022/05/09 13:46:41;;;;;;;9.48;2.63;;;;;;;24.89;31.12;100557.19;10259089;28;20389;-68
2022/05/09 13:52:12;;;;;;;3.78;2.20;;;;;;;25.12;31.48;100552.00;10257512;28;20386;-68
2022/05/09 13:57:29;;;;;;;4.80;2.60;;;;;;;25.02;30.00;100538.78;10277272;28;20073;-68
2022/05/09 14:02:32;;;;;;;7.30;2.67;;;;;;;24.76;31.42;100530.09;10266791;28;20066;-68
2022/05/09 14:07:41;;;;;;;5.32;2.47;;;;;;;24.80;30.64;100535.94;10258136;28;20046;-67
2022/05/09 14:12:43;;;;;;;6.47;2.50;;;;;;;25.01;30.63;100528.25;10260044;28;20093;-68
2022/05/09 14:18:03;;;;;;;5.93;2.55;;;;;;;24.49;30.08;100525.06;10259099;28;20081;-67
2022/05/09 14:23:08;;;;;;;4.38;2.40;;;;;;;24.33;30.42;100516.22;10257637;28;20387;-68
2022/05/09 14:33:40;;;;;;;;;;;;;;;24.64;30.03;100506.50;10258793;28;20088;-68
2022/05/09 14:38:52;;;;;;;4.78;2.50;;;;;;;25.13;29.24;100496.59;10259813;28;20035;-67
2022/05/09 14:44:10;;;;;;;3.78;2.25;;;;;;;24.98;29.60;100489.28;10258192;28;20145;-67
2022/05/09 14:49:16;;;;;;;7.00;2.85;;;;;;;24.85;27.62;100499.69;10263757;28;20046;-68
2022/05/09 14:54:18;;;;;;;5.15;2.20;;;;;;;24.96;30.58;100493.13;10267356;28;20193;-68
2022/05/09 14:59:23;;;;;;;4.60;2.30;;;;;;;25.01;29.28;100485.44;10289541;28;20189;-67
2022/05/09 15:04:26;;;;;;;7.55;2.30;;;;;;;25.07;29.11;100482.06;10262680;28;20050;-67
2022/05/09 15:09:29;;;;;;;9.30;2.80;;;;;;;24.99;28.82;100484.75;10265144;28;20366;-68
2022/05/09 15:14:33;;;;;;;4.93;2.30;;;;;;;25.24;29.24;100486.38;10266551;28;20086;-68
2022/05/09 15:19:35;;;;;;;4.88;2.10;;;;;;;25.18;27.58;100478.19;10268870;28;20146;-67
2022/05/09 15:24:38;;;;;;;4.35;2.33;;;;;;;25.02;29.42;100481.72;10264247;28;20130;-67
2022/05/09 15:29:41;;;;;;;5.88;2.40;;;;;;;24.89;29.59;100476.94;10262838;28;20058;-66
2022/05/09 15:34:43;;;;;;;5.18;2.60;;;;;;;24.88;28.22;100466.38;10265082;28;20069;-67
2022/05/09 15:39:45;;;;;;;4.32;2.28;;;;;;;24.85;29.56;100474.75;10273905;28;20055;-66
2022/05/09 15:44:59;;;;;;;5.82;2.30;;;;;;;24.87;29.41;100468.25;10278442;28;20162;-67
2022/05/09 15:50:01;;;;;;;4.70;2.70;;;;;;;24.58;30.30;100470.56;10274194;28;20056;-67
2022/05/09 15:55:07;;;;;;;6.95;2.80;;;;;;;24.55;29.29;100472.75;10262254;28;20643;-67
2022/05/09 16:00:13;;;;;;;5.60;2.47;;;;;;;24.80;28.37;100464.56;10255426;28;20206;-67
2022/05/09 16:05:17;;;;;;;5.63;2.50;;;;;;;24.50;28.35;100461.72;10258661;28;20054;-67
2022/05/09 16:15:40;;;;;;;6.38;2.60;;;;;;;24.29;29.52;100457.72;10255053;28;20525;-67
2022/05/09 16:20:42;;;;;;;6.07;2.47;;;;;;;24.39;29.58;100467.44;10258185;28;20051;-67
2022/05/09 16:25:46;;;;;;;4.28;2.40;;;;;;;24.10;28.90;100463.38;10269765;28;20043;-67
2022/05/09 16:30:48;;;;;;;5.55;2.40;;;;;;;23.98;30.16;100461.19;10264269;28;20545;-68
2022/05/09 16:35:51;;;;;;;5.93;2.55;;;;;;;24.18;31.36;100465.25;10266970;28;20189;-68
2022/05/09 16:40:53;;;;;;;5.75;2.33;;;;;;;24.21;30.03;100460.38;10273755;28;20042;-68
2022/05/09 16:45:56;;;;;;;5.60;2.80;;;;;;;24.24;32.12;100452.06;10283439;28;20072;-68
2022/05/09 16:50:58;;;;;;;7.20;2.30;;;;;;;24.24;30.53;100452.06;10264145;28;20196;-68
2022/05/09 16:56:00;;;;;;;6.88;2.30;;;;;;;24.22;31.77;100450.53;10260794;28;20062;-68
2022/05/09 17:01:03;;;;;;;4.53;2.70;;;;;;;24.20;32.92;100440.03;10282683;28;20047;-68
2022/05/09 17:06:05;;;;;;;5.93;2.45;;;;;;;24.24;30.79;100440.53;10266449;28;20055;-68
2022/05/09 17:11:08;;;;;;;5.88;2.47;;;;;;;24.18;31.66;100435.84;10262504;28;20053;-68
2022/05/09 17:16:09;;;;;;;5.85;2.40;;;;;;;23.97;32.48;100438.97;10260535;28;20205;-68
2022/05/09 17:21:11;;;;;;;7.30;2.72;;;;;;;23.86;33.51;100438.44;10263009;28;20145;-68
2022/05/09 17:26:19;;;;;;;5.90;2.38;;;;;;;23.75;33.99;100434.25;10259108;28;21048;-67
2022/05/09 17:31:23;;;;;;;7.68;2.50;;;;;;;23.73;34.67;100430.91;10271002;28;20076;-68
2022/05/09 17:41:49;;;;;;;6.82;2.70;;;;;;;23.56;34.47;100431.84;10261472;28;20132;-68
2022/05/09 17:46:55;;;;;;;4.60;2.45;;;;;;;23.46;33.75;100429.34;10284140;28;20135;-68
2022/05/09 17:51:57;;;;;;;6.97;2.72;;;;;;;23.30;34.83;100431.06;10276297;28;20059;-68
2022/05/09 17:57:02;;;;;;;6.28;2.75;;;;;;;23.16;36.21;100423.69;10259301;28;20503;-68
2022/05/09 18:02:05;;;;;;;7.18;2.60;;;;;;;22.98;34.44;100425.59;10259500;28;20133;-68
2022/05/09 18:07:08;;;;;;;6.45;2.85;;;;;;;22.82;34.11;100428.19;10259978;28;20059;-68
2022/05/09 18:12:17;;;;;;;5.38;2.60;;;;;;;22.64;34.17;100428.19;10256066;28;20590;-68
2022/05/09 18:17:30;;;;;;;4.28;2.53;;;;;;;22.38;34.30;100430.84;10286985;28;20137;-68
2022/05/09 18:22:33;;;;;;;7.50;2.80;;;;;;;22.26;35.68;100428.56;10259226;28;20058;-67
2022/05/09 18:27:35;;;;;;;6.22;2.70;;;;;;;22.03;36.35;100427.31;10261178;28;20488;-68
2022/05/09 18:32:37;;;;;;;5.00;2.50;;;;;;;21.70;37.79;100427.03;10262174;28;20149;-68
2022/05/09 18:37:58;;;;;;;7.80;2.85;;;;;;;21.40;39.02;100434.50;10257842;28;20078;-68
2022/05/09 18:43:07;;;;;;;4.72;3.00;;;;;;;21.02;38.95;100436.34;10286846;28;20237;-68
2022/05/09 18:48:09;;;;;;;8.50;3.00;;;;;;;20.64;39.76;100441.75;10294716;28;20527;-68
2022/05/09 18:53:12;;;;;;;6.85;3.13;;;;;;;20.27;40.54;100444.28;10272074;28;20082;-68
2022/05/09 18:58:18;;;;;;;5.40;3.08;;;;;;;20.01;41.46;100442.38;10261247;28;20201;-69
2022/05/09 19:03:20;;;;;;;5.60;3.10;;;;;;;19.79;41.96;100447.88;10269627;28;20391;-69
2022/05/09 19:08:34;;;;;;;6.93;3.15;;;;;;;19.58;43.62;100455.97;10262386;28;20198;-69
2022/05/09 19:13:46;;;;;;;5.95;3.20;;;;;;;19.45;43.60;100466.81;10257836;28;20269;-69
2022/05/09 19:18:50;;;;;;;6.25;3.20;;;;;;;19.24;44.07;100474.00;10291646;28;20058;-68
2022/05/09 19:23:56;;;;;;;5.53;3.00;;;;;;;18.94;44.70;100468.66;10261597;28;20463;-69
2022/05/09 19:28:59;;;;;;;6.18;3.15;;;;;;;18.69;45.01;100474.38;10259384;28;20222;-67
2022/05/09 19:34:02;;;;;;;5.35;3.10;;;;;;;18.44;45.86;100483.53;10272148;28;20629;-69
2022/05/09 19:39:04;;;;;;;5.90;3.10;;;;;;;18.26;46.06;100489.56;10274238;28;20137;-68
2022/05/09 19:44:13;;;;;;;5.05;3.10;;;;;;;18.10;46.85;100494.38;10286268;28;20130;-68
2022/05/09 19:49:16;;;;;;;4.40;3.17;;;;;;;17.93;47.29;100497.56;10289764;28;20051;-69
2022/05/09 19:54:17;;;;;;;6.47;3.67;;;;;;;17.77;47.65;100492.69;10268630;28;20046;-69
2022/05/09 19:59:20;;;;;;;6.55;3.60;;;;;;;17.39;48.56;100508.09;10269006;28;20095;-67
2022/05/09 20:04:21;;;;;;;5.75;3.45;;;;;;;17.14;48.84;100509.13;10267409;28;20286;-65
2022/05/09 20:09:23;;;;;;;8.40;3.90;;;;;;;16.97;49.43;100506.97;10266358;28;20766;-65
2022/05/09 20:14:27;;;;;;;6.05;3.47;;;;;;;16.98;49.66;100511.28;10271411;28;20633;-65
2022/05/09 20:19:28;;;;;;;6.38;3.50;;;;;;;16.95;49.82;100504.47;10263796;28;20694;-65
2022/05/09 20:24:32;;;;;;;7.43;4.05;;;;;;;16.86;49.87;100515.72;10271949;28;20577;-65
2022/05/09 20:34:55;;;;;;;;;;;;;;;16.22;51.24;100517.03;10267121;28;20086;-64
2022/05/09 20:40:01;;;;;;;8.73;3.70;;;;;;;16.44;50.88;100520.75;10263547;28;20473;-64
2022/05/09 20:45:04;;;;;;;6.03;3.72;;;;;;;16.34;51.31;100523.22;10264833;28;20050;-64
2022/05/09 20:50:10;;;;;;;7.68;4.10;;;;;;;16.18;51.73;100520.84;10265943;28;20130;-65
2022/05/09 20:55:15;;;;;;;5.68;3.80;;;;;;;16.05;51.74;100521.88;10265274;28;20504;-64
2022/05/09 21:00:23;;;;;;;7.80;4.15;;;;;;;15.88;52.29;100514.34;10272792;28;20046;-64
2022/05/09 21:05:25;;;;;;;6.93;3.63;;;;;;;15.79;52.33;100515.88;10264655;28;20132;-65
2022/05/09 21:10:26;;;;;;;6.00;3.92;;;;;;;15.72;52.56;100517.25;10262177;28;20074;-63
2022/05/09 21:15:28;;;;;;;6.45;3.88;;;;;;;15.61;52.89;100505.78;10277899;28;20061;-64
2022/05/09 21:20:30;;;;;;;6.97;3.97;;;;;;;15.53;53.02;100511.59;10264002;28;20078;-65
2022/05/09 21:25:35;;;;;;;6.63;3.90;;;;;;;15.48;53.26;100508.41;10265411;28;20054;-65
2022/05/09 21:30:37;;;;;;;5.05;3.78;;;;;;;15.37;53.32;100511.81;10264459;28;20053;-65
2022/05/09 21:35:47;;;;;;;7.30;4.38;;;;;;;15.13;53.76;100516.16;10262959;28;20062;-65
2022/05/09 21:41:04;;;;;;;6.32;4.05;;;;;;;14.72;54.45;100514.66;10261295;28;20292;-65
2022/05/09 21:46:06;;;;;;;8.68;4.03;;;;;;;14.70;54.44;100525.28;10262545;28;20158;-65
2022/05/09 21:51:11;;;;;;;6.13;4.40;;;;;;;14.40;55.21;100514.16;10284791;28;20051;-65
2022/05/09 21:56:13;;;;;;;6.22;4.20;;;;;;;14.40;55.00;100528.16;10268535;28;20639;-65
2022/05/09 22:01:20;;;;;;;6.97;4.13;;;;;;;14.29;55.56;100516.63;10260807;28;20097;-63
2022/05/09 22:06:26;;;;;;;5.93;3.97;;;;;;;14.34;55.34;100512.78;10260782;28;20291;-65
2022/05/09 22:11:28;;;;;;;6.93;4.65;;;;;;;14.19;55.35;100516.41;10259676;28;20189;-65
2022/05/09 22:16:30;;;;;;;9.60;4.43;;;;;;;13.98;56.31;100509.06;10271944;28;20054;-65
2022/05/09 22:21:31;;;;;;;6.50;4.30;;;;;;;14.05;56.19;100511.19;10258419;28;20302;-65
2022/05/09 22:26:35;;;;;;;8.57;4.80;;;;;;;14.19;56.07;100518.19;10260993;28;20129;-65
2022/05/09 22:31:36;;;;;;;6.22;4.47;;;;;;;14.12;55.90;100507.25;10265349;28;20206;-63
2022/05/09 22:36:47;;;;;;;6.78;4.70;;;;;;;13.87;56.14;100517.63;10264262;28;20058;-64
2022/05/09 22:41:50;;;;;;;7.10;4.63;;;;;;;13.54;57.14;100515.34;10256755;28;20472;-65
2022/05/09 22:46:53;;;;;;;7.85;4.78;;;;;;;13.64;57.03;100528.75;10261255;28;20140;-65
2022/05/09 22:51:55;;;;;;;9.13;4.20;;;;;;;13.66;56.83;100521.63;10260327;28;20055;-64
2022/05/09 22:56:58;;;;;;;6.95;4.35;;;;;;;13.70;56.65;100515.22;10260695;28;20046;-64
2022/05/09 23:02:00;;;;;;;6.28;4.30;;;;;;;13.71;56.70;100519.56;10271751;28;20081;-64
2022/05/09 23:07:02;;;;;;;8.35;4.75;;;;;;;13.20;57.16;100514.88;10263604;28;20069;-66
2022/05/09 23:12:05;;;;;;;6.45;4.35;;;;;;;13.19;57.63;100526.34;10268336;28;20093;-63
2022/05/09 23:17:07;;;;;;;5.90;4.70;;;;;;;13.28;57.70;100515.25;10267314;28;20574;-64
2022/05/09 23:22:09;;;;;;;8.95;4.70;;;;;;;13.21;58.04;100506.09;10267490;28;20051;-65
2022/05/09 23:27:11;;;;;;;5.80;5.07;;;;;;;13.12;57.96;100504.84;10268384;28;20062;-64
2022/05/09 23:32:13;;;;;;;6.78;4.22;;;;;;;13.12;57.84;100498.75;10278964;28;20125;-63
2022/05/09 23:37:16;;;;;;;8.68;5.05;;;;;;;13.07;58.02;100498.22;10266068;28;20113;-64
2022/05/09 23:42:21;;;;;;;7.57;5.15;;;;;;;12.97;58.13;100490.03;10266907;28;20051;-63
2022/05/09 23:47:25;;;;;;;6.78;4.63;;;;;;;12.92;58.06;100485.03;10268400;28;20094;-63
2022/05/09 23:52:27;;;;;;;8.90;4.80;;;;;;;12.82;58.53;100483.91;10266147;28;20122;-63
2022/05/09 23:57:29;;;;;;;7.32;5.25;;;;;;;12.84;58.29;100478.59;10267301;28;20054;-63
